sensor_id;sensor_type;location;lat;lon;timestamp;P1;durP1;ratioP1;P2;durP2;ratioP2
39982;SDS011;25670;44.782;10.356;2022-11-15T00:00:51;69.30;;;30.80;;
39982;SDS011;25670;44.782;10.356;2022-11-15T00:03:37;69.55;;;30.67;;
39982;SDS011;25670;44.782;10.356;2022-11-15T00:06:22;70.72;;;29.55;;
39982;SDS011;25670;44.782;10.356;2022-11-15T00:09:06;71.63;;;29.30;;
39982;SDS011;25670;44.782;10.356;2022-11-15T00:11:51;65.85;;;28.75;;
39982;SDS011;25670;44.782;10.356;2022-11-15T00:14:36;64.28;;;27.65;;
39982;SDS011;25670;44.782;10.356;2022-11-15T00:17:21;63.35;;;27.80;;
39982;SDS011;25670;44.782;10.356;2022-11-15T00:20:06;70.15;;;27.98;;
39982;SDS011;25670;44.782;10.356;2022-11-15T00:22:51;63.85;;;28.08;;
39982;SDS011;25670;44.782;10.356;2022-11-15T00:25:36;54.92;;;26.33;;
39982;SDS011;25670;44.782;10.356;2022-11-15T00:28:21;61.30;;;27.10;;
39982;SDS011;25670;44.782;10.356;2022-11-15T00:31:06;53.72;;;25.83;;
39982;SDS011;25670;44.782;10.356;2022-11-15T00:33:55;54.13;;;25.33;;
39982;SDS011;25670;44.782;10.356;2022-11-15T00:36:40;52.65;;;25.15;;
39982;SDS011;25670;44.782;10.356;2022-11-15T00:39:24;59.35;;;27.30;;
39982;SDS011;25670;44.782;10.356;2022-11-15T00:42:09;55.70;;;26.23;;
39982;SDS011;25670;44.782;10.356;2022-11-15T00:44:54;53.00;;;24.27;;
39982;SDS011;25670;44.782;10.356;2022-11-15T00:47:39;52.00;;;24.55;;
39982;SDS011;25670;44.782;10.356;2022-11-15T00:50:24;49.75;;;24.95;;
39982;SDS011;25670;44.782;10.356;2022-11-15T00:53:08;55.03;;;24.45;;
39982;SDS011;25670;44.782;10.356;2022-11-15T00:55:53;52.97;;;23.80;;
39982;SDS011;25670;44.782;10.356;2022-11-15T00:58:38;55.00;;;25.25;;
39982;SDS011;25670;44.782;10.356;2022-11-15T01:01:23;51.83;;;23.67;;
39982;SDS011;25670;44.782;10.356;2022-11-15T01:04:08;58.35;;;24.48;;
39982;SDS011;25670;44.782;10.356;2022-11-15T01:06:53;53.22;;;23.73;;
39982;SDS011;25670;44.782;10.356;2022-11-15T01:09:37;63.20;;;26.10;;
39982;SDS011;25670;44.782;10.356;2022-11-15T01:12:22;52.60;;;25.00;;
39982;SDS011;25670;44.782;10.356;2022-11-15T01:15:07;56.22;;;24.25;;
39982;SDS011;25670;44.782;10.356;2022-11-15T01:17:52;58.15;;;25.50;;
39982;SDS011;25670;44.782;10.356;2022-11-15T01:20:40;58.30;;;25.70;;
39982;SDS011;25670;44.782;10.356;2022-11-15T01:23:26;50.75;;;24.52;;
39982;SDS011;25670;44.782;10.356;2022-11-15T01:26:13;56.28;;;24.52;;
39982;SDS011;25670;44.782;10.356;2022-11-15T01:28:59;51.40;;;23.30;;
39982;SDS011;25670;44.782;10.356;2022-11-15T01:31:43;54.13;;;24.63;;
39982;SDS011;25670;44.782;10.356;2022-11-15T01:34:28;56.25;;;25.42;;
39982;SDS011;25670;44.782;10.356;2022-11-15T01:37:13;49.85;;;22.20;;
39982;SDS011;25670;44.782;10.356;2022-11-15T01:39:58;58.63;;;25.25;;
39982;SDS011;25670;44.782;10.356;2022-11-15T01:42:42;46.78;;;21.98;;
39982;SDS011;25670;44.782;10.356;2022-11-15T01:45:27;48.65;;;22.88;;
39982;SDS011;25670;44.782;10.356;2022-11-15T01:48:12;51.03;;;23.45;;
39982;SDS011;25670;44.782;10.356;2022-11-15T01:50:57;53.53;;;25.00;;
39982;SDS011;25670;44.782;10.356;2022-11-15T01:53:43;57.22;;;24.27;;
39982;SDS011;25670;44.782;10.356;2022-11-15T01:56:32;49.70;;;23.42;;
39982;SDS011;25670;44.782;10.356;2022-11-15T01:59:21;48.45;;;22.65;;
39982;SDS011;25670;44.782;10.356;2022-11-15T02:02:06;54.33;;;24.35;;
39982;SDS011;25670;44.782;10.356;2022-11-15T02:04:51;49.42;;;22.60;;
39982;SDS011;25670;44.782;10.356;2022-11-15T02:07:36;53.95;;;24.08;;
39982;SDS011;25670;44.782;10.356;2022-11-15T02:10:22;55.17;;;22.55;;
39982;SDS011;25670;44.782;10.356;2022-11-15T02:13:08;45.17;;;22.13;;
39982;SDS011;25670;44.782;10.356;2022-11-15T02:19:01;54.78;;;24.20;;
39982;SDS011;25670;44.782;10.356;2022-11-15T02:30:47;49.85;;;23.52;;
39982;SDS011;25670;44.782;10.356;2022-11-15T02:39:35;50.55;;;23.75;;
39982;SDS011;25670;44.782;10.356;2022-11-15T02:42:42;53.93;;;23.87;;
39982;SDS011;25670;44.782;10.356;2022-11-15T02:45:58;61.92;;;24.52;;
39982;SDS011;25670;44.782;10.356;2022-11-15T02:48:51;56.22;;;23.75;;
39982;SDS011;25670;44.782;10.356;2022-11-15T02:51:36;51.40;;;23.58;;
39982;SDS011;25670;44.782;10.356;2022-11-15T02:54:22;49.28;;;23.17;;
39982;SDS011;25670;44.782;10.356;2022-11-15T02:57:13;54.35;;;23.90;;
39982;SDS011;25670;44.782;10.356;2022-11-15T03:00:03;60.22;;;23.90;;
39982;SDS011;25670;44.782;10.356;2022-11-15T03:12:11;48.42;;;22.85;;
39982;SDS011;25670;44.782;10.356;2022-11-15T03:18:01;57.25;;;23.08;;
39982;SDS011;25670;44.782;10.356;2022-11-15T03:20:55;48.17;;;22.83;;
39982;SDS011;25670;44.782;10.356;2022-11-15T03:23:44;51.20;;;23.00;;
39982;SDS011;25670;44.782;10.356;2022-11-15T03:26:30;43.05;;;20.92;;
39982;SDS011;25670;44.782;10.356;2022-11-15T03:29:19;46.30;;;22.02;;
39982;SDS011;25670;44.782;10.356;2022-11-15T03:32:11;46.75;;;22.42;;
39982;SDS011;25670;44.782;10.356;2022-11-15T03:41:15;39.92;;;19.58;;
39982;SDS011;25670;44.782;10.356;2022-11-15T03:44:11;40.90;;;20.45;;
39982;SDS011;25670;44.782;10.356;2022-11-15T03:47:09;43.60;;;20.38;;
39982;SDS011;25670;44.782;10.356;2022-11-15T03:50:19;38.15;;;19.92;;
39982;SDS011;25670;44.782;10.356;2022-11-15T03:53:03;39.63;;;20.40;;
39982;SDS011;25670;44.782;10.356;2022-11-15T03:55:48;37.90;;;19.35;;
39982;SDS011;25670;44.782;10.356;2022-11-15T03:58:33;38.42;;;20.05;;
39982;SDS011;25670;44.782;10.356;2022-11-15T04:01:18;40.53;;;19.63;;
39982;SDS011;25670;44.782;10.356;2022-11-15T04:04:03;41.65;;;20.88;;
39982;SDS011;25670;44.782;10.356;2022-11-15T04:06:48;41.22;;;20.77;;
39982;SDS011;25670;44.782;10.356;2022-11-15T04:09:33;35.60;;;18.92;;
39982;SDS011;25670;44.782;10.356;2022-11-15T04:12:39;41.45;;;20.50;;
39982;SDS011;25670;44.782;10.356;2022-11-15T04:15:27;39.33;;;20.23;;
39982;SDS011;25670;44.782;10.356;2022-11-15T04:18:12;40.83;;;20.25;;
39982;SDS011;25670;44.782;10.356;2022-11-15T04:20:57;39.38;;;20.10;;
39982;SDS011;25670;44.782;10.356;2022-11-15T04:24:01;42.80;;;20.90;;
39982;SDS011;25670;44.782;10.356;2022-11-15T04:26:48;39.88;;;20.45;;
39982;SDS011;25670;44.782;10.356;2022-11-15T04:29:33;43.00;;;20.77;;
39982;SDS011;25670;44.782;10.356;2022-11-15T04:32:18;34.40;;;19.17;;
39982;SDS011;25670;44.782;10.356;2022-11-15T04:35:03;38.63;;;19.75;;
39982;SDS011;25670;44.782;10.356;2022-11-15T04:37:48;35.60;;;18.98;;
39982;SDS011;25670;44.782;10.356;2022-11-15T04:40:33;33.97;;;20.25;;
39982;SDS011;25670;44.782;10.356;2022-11-15T04:43:18;42.20;;;19.83;;
39982;SDS011;25670;44.782;10.356;2022-11-15T04:46:03;38.95;;;19.92;;
39982;SDS011;25670;44.782;10.356;2022-11-15T04:48:48;38.38;;;20.15;;
39982;SDS011;25670;44.782;10.356;2022-11-15T04:51:33;32.85;;;19.58;;
39982;SDS011;25670;44.782;10.356;2022-11-15T04:54:18;35.85;;;19.30;;
39982;SDS011;25670;44.782;10.356;2022-11-15T04:57:03;36.88;;;20.65;;
39982;SDS011;25670;44.782;10.356;2022-11-15T04:59:47;36.35;;;18.75;;
39982;SDS011;25670;44.782;10.356;2022-11-15T05:02:32;30.05;;;17.90;;
39982;SDS011;25670;44.782;10.356;2022-11-15T05:05:36;35.92;;;18.40;;
39982;SDS011;25670;44.782;10.356;2022-11-15T05:08:22;34.53;;;18.40;;
39982;SDS011;25670;44.782;10.356;2022-11-15T05:11:06;40.22;;;18.10;;
39982;SDS011;25670;44.782;10.356;2022-11-15T05:13:51;36.33;;;19.10;;
39982;SDS011;25670;44.782;10.356;2022-11-15T05:16:36;34.80;;;19.17;;
39982;SDS011;25670;44.782;10.356;2022-11-15T05:19:22;31.98;;;18.85;;
39982;SDS011;25670;44.782;10.356;2022-11-15T05:22:07;33.88;;;18.65;;
39982;SDS011;25670;44.782;10.356;2022-11-15T05:24:52;35.15;;;19.35;;
39982;SDS011;25670;44.782;10.356;2022-11-15T05:27:37;41.97;;;20.00;;
39982;SDS011;25670;44.782;10.356;2022-11-15T05:30:22;34.30;;;19.80;;
39982;SDS011;25670;44.782;10.356;2022-11-15T05:33:07;36.53;;;20.35;;
39982;SDS011;25670;44.782;10.356;2022-11-15T05:35:54;40.50;;;21.45;;
39982;SDS011;25670;44.782;10.356;2022-11-15T05:38:45;33.53;;;18.35;;
39982;SDS011;25670;44.782;10.356;2022-11-15T05:41:32;33.22;;;17.95;;
39982;SDS011;25670;44.782;10.356;2022-11-15T05:44:24;37.33;;;20.10;;
39982;SDS011;25670;44.782;10.356;2022-11-15T05:47:11;36.22;;;19.02;;
39982;SDS011;25670;44.782;10.356;2022-11-15T05:49:59;37.88;;;19.70;;
39982;SDS011;25670;44.782;10.356;2022-11-15T05:52:44;38.05;;;19.20;;
39982;SDS011;25670;44.782;10.356;2022-11-15T05:55:30;35.08;;;20.45;;
39982;SDS011;25670;44.782;10.356;2022-11-15T05:58:15;37.13;;;20.27;;
39982;SDS011;25670;44.782;10.356;2022-11-15T06:01:00;34.28;;;18.92;;
39982;SDS011;25670;44.782;10.356;2022-11-15T06:03:45;34.55;;;18.65;;
39982;SDS011;25670;44.782;10.356;2022-11-15T06:06:30;36.60;;;18.63;;
39982;SDS011;25670;44.782;10.356;2022-11-15T06:09:15;31.10;;;18.02;;
39982;SDS011;25670;44.782;10.356;2022-11-15T06:12:00;31.40;;;17.95;;
39982;SDS011;25670;44.782;10.356;2022-11-15T06:14:45;37.72;;;18.05;;
39982;SDS011;25670;44.782;10.356;2022-11-15T06:17:30;33.97;;;17.35;;
39982;SDS011;25670;44.782;10.356;2022-11-15T06:20:15;37.15;;;18.58;;
39982;SDS011;25670;44.782;10.356;2022-11-15T06:23:00;29.30;;;17.10;;
39982;SDS011;25670;44.782;10.356;2022-11-15T06:25:47;32.40;;;17.60;;
39982;SDS011;25670;44.782;10.356;2022-11-15T06:28:32;33.03;;;17.60;;
39982;SDS011;25670;44.782;10.356;2022-11-15T06:31:17;31.25;;;16.70;;
39982;SDS011;25670;44.782;10.356;2022-11-15T06:34:02;27.42;;;16.83;;
39982;SDS011;25670;44.782;10.356;2022-11-15T06:36:47;34.80;;;18.35;;
39982;SDS011;25670;44.782;10.356;2022-11-15T06:39:32;33.03;;;17.80;;
39982;SDS011;25670;44.782;10.356;2022-11-15T06:42:17;32.47;;;17.50;;
39982;SDS011;25670;44.782;10.356;2022-11-15T06:45:01;34.65;;;18.92;;
39982;SDS011;25670;44.782;10.356;2022-11-15T06:47:47;33.53;;;19.45;;
39982;SDS011;25670;44.782;10.356;2022-11-15T06:50:32;30.95;;;17.90;;
39982;SDS011;25670;44.782;10.356;2022-11-15T06:53:16;32.20;;;18.88;;
39982;SDS011;25670;44.782;10.356;2022-11-15T06:56:03;34.95;;;19.45;;
39982;SDS011;25670;44.782;10.356;2022-11-15T06:58:50;30.55;;;18.85;;
39982;SDS011;25670;44.782;10.356;2022-11-15T07:01:35;32.97;;;19.80;;
39982;SDS011;25670;44.782;10.356;2022-11-15T07:04:20;41.78;;;23.23;;
39982;SDS011;25670;44.782;10.356;2022-11-15T07:07:04;36.92;;;19.08;;
39982;SDS011;25670;44.782;10.356;2022-11-15T07:09:49;37.75;;;18.55;;
39982;SDS011;25670;44.782;10.356;2022-11-15T07:12:34;34.50;;;18.77;;
39982;SDS011;25670;44.782;10.356;2022-11-15T07:15:20;31.88;;;17.75;;
39982;SDS011;25670;44.782;10.356;2022-11-15T07:18:06;30.00;;;17.58;;
39982;SDS011;25670;44.782;10.356;2022-11-15T07:20:51;33.67;;;18.70;;
39982;SDS011;25670;44.782;10.356;2022-11-15T07:23:36;30.60;;;17.48;;
39982;SDS011;25670;44.782;10.356;2022-11-15T07:26:24;32.33;;;18.65;;
39982;SDS011;25670;44.782;10.356;2022-11-15T07:29:09;30.17;;;18.05;;
39982;SDS011;25670;44.782;10.356;2022-11-15T07:31:54;35.80;;;17.65;;
39982;SDS011;25670;44.782;10.356;2022-11-15T07:34:38;33.60;;;16.85;;
39982;SDS011;25670;44.782;10.356;2022-11-15T07:37:23;29.50;;;17.20;;
39982;SDS011;25670;44.782;10.356;2022-11-15T07:40:08;31.73;;;18.38;;
39982;SDS011;25670;44.782;10.356;2022-11-15T07:42:58;28.27;;;17.20;;
39982;SDS011;25670;44.782;10.356;2022-11-15T07:45:45;29.30;;;17.60;;
39982;SDS011;25670;44.782;10.356;2022-11-15T07:48:30;29.48;;;17.50;;
39982;SDS011;25670;44.782;10.356;2022-11-15T07:51:15;27.15;;;16.65;;
39982;SDS011;25670;44.782;10.356;2022-11-15T07:54:00;33.97;;;16.30;;
39982;SDS011;25670;44.782;10.356;2022-11-15T07:56:45;28.77;;;16.33;;
39982;SDS011;25670;44.782;10.356;2022-11-15T07:59:30;22.55;;;15.63;;
39982;SDS011;25670;44.782;10.356;2022-11-15T08:02:14;30.75;;;16.58;;
39982;SDS011;25670;44.782;10.356;2022-11-15T08:05:02;27.83;;;16.60;;
39982;SDS011;25670;44.782;10.356;2022-11-15T08:07:47;23.45;;;15.73;;
39982;SDS011;25670;44.782;10.356;2022-11-15T08:10:32;26.38;;;15.57;;
39982;SDS011;25670;44.782;10.356;2022-11-15T08:13:17;24.63;;;15.38;;
39982;SDS011;25670;44.782;10.356;2022-11-15T08:16:02;30.88;;;17.42;;
39982;SDS011;25670;44.782;10.356;2022-11-15T08:18:49;27.67;;;17.50;;
39982;SDS011;25670;44.782;10.356;2022-11-15T08:21:35;29.58;;;18.60;;
39982;SDS011;25670;44.782;10.356;2022-11-15T08:24:20;30.42;;;18.13;;
39982;SDS011;25670;44.782;10.356;2022-11-15T08:27:05;27.08;;;16.73;;
39982;SDS011;25670;44.782;10.356;2022-11-15T08:29:58;34.08;;;18.55;;
39982;SDS011;25670;44.782;10.356;2022-11-15T08:32:43;25.48;;;17.02;;
39982;SDS011;25670;44.782;10.356;2022-11-15T08:35:28;35.20;;;18.50;;
39982;SDS011;25670;44.782;10.356;2022-11-15T08:38:13;37.20;;;20.20;;
39982;SDS011;25670;44.782;10.356;2022-11-15T08:41:00;33.53;;;19.52;;
39982;SDS011;25670;44.782;10.356;2022-11-15T08:43:48;32.15;;;19.48;;
39982;SDS011;25670;44.782;10.356;2022-11-15T08:46:33;40.45;;;20.60;;
39982;SDS011;25670;44.782;10.356;2022-11-15T08:49:17;37.20;;;21.27;;
39982;SDS011;25670;44.782;10.356;2022-11-15T08:52:02;41.15;;;21.60;;
39982;SDS011;25670;44.782;10.356;2022-11-15T08:54:47;39.13;;;20.52;;
39982;SDS011;25670;44.782;10.356;2022-11-15T08:57:32;39.50;;;20.75;;
39982;SDS011;25670;44.782;10.356;2022-11-15T09:00:17;39.58;;;20.60;;
39982;SDS011;25670;44.782;10.356;2022-11-15T09:03:04;38.10;;;21.67;;
39982;SDS011;25670;44.782;10.356;2022-11-15T09:05:53;38.58;;;22.67;;
39982;SDS011;25670;44.782;10.356;2022-11-15T09:08:39;48.80;;;23.23;;
39982;SDS011;25670;44.782;10.356;2022-11-15T09:11:24;44.20;;;23.98;;
39982;SDS011;25670;44.782;10.356;2022-11-15T09:14:11;40.90;;;21.30;;
39982;SDS011;25670;44.782;10.356;2022-11-15T09:16:57;43.88;;;22.80;;
39982;SDS011;25670;44.782;10.356;2022-11-15T09:19:42;45.00;;;24.20;;
39982;SDS011;25670;44.782;10.356;2022-11-15T09:22:27;42.05;;;23.70;;
39982;SDS011;25670;44.782;10.356;2022-11-15T09:25:12;40.83;;;23.55;;
39982;SDS011;25670;44.782;10.356;2022-11-15T09:27:57;42.78;;;23.52;;
39982;SDS011;25670;44.782;10.356;2022-11-15T09:30:42;38.40;;;22.83;;
39982;SDS011;25670;44.782;10.356;2022-11-15T09:33:27;46.55;;;24.52;;
39982;SDS011;25670;44.782;10.356;2022-11-15T09:36:12;47.17;;;25.30;;
39982;SDS011;25670;44.782;10.356;2022-11-15T09:38:57;46.00;;;24.27;;
39982;SDS011;25670;44.782;10.356;2022-11-15T09:50:49;49.95;;;26.90;;
39982;SDS011;25670;44.782;10.356;2022-11-15T09:53:24;55.03;;;28.17;;
39982;SDS011;25670;44.782;10.356;2022-11-15T09:56:08;53.70;;;28.92;;
39982;SDS011;25670;44.782;10.356;2022-11-15T10:04:38;50.78;;;27.48;;
39982;SDS011;25670;44.782;10.356;2022-11-15T10:12:49;51.25;;;27.00;;
39982;SDS011;25670;44.782;10.356;2022-11-15T10:15:16;50.65;;;27.88;;
39982;SDS011;25670;44.782;10.356;2022-11-15T10:23:19;54.08;;;27.40;;
39982;SDS011;25670;44.782;10.356;2022-11-15T10:25:50;49.75;;;29.02;;
39982;SDS011;25670;44.782;10.356;2022-11-15T10:28:22;57.92;;;29.80;;
39982;SDS011;25670;44.782;10.356;2022-11-15T10:30:55;52.75;;;29.17;;
39982;SDS011;25670;44.782;10.356;2022-11-15T10:41:16;50.55;;;28.75;;
39982;SDS011;25670;44.782;10.356;2022-11-15T10:43:45;54.40;;;29.42;;
39982;SDS011;25670;44.782;10.356;2022-11-15T10:46:33;54.78;;;30.38;;
39982;SDS011;25670;44.782;10.356;2022-11-15T10:49:17;50.60;;;29.00;;
39982;SDS011;25670;44.782;10.356;2022-11-15T10:54:21;62.83;;;30.73;;
39982;SDS011;25670;44.782;10.356;2022-11-15T10:56:50;50.70;;;29.17;;
39982;SDS011;25670;44.782;10.356;2022-11-15T10:59:26;55.60;;;28.98;;
39982;SDS011;25670;44.782;10.356;2022-11-15T11:01:56;51.88;;;28.67;;
39982;SDS011;25670;44.782;10.356;2022-11-15T11:04:22;54.00;;;29.55;;
39982;SDS011;25670;44.782;10.356;2022-11-15T11:06:50;55.70;;;28.95;;
39982;SDS011;25670;44.782;10.356;2022-11-15T11:11:58;60.60;;;31.52;;
39982;SDS011;25670;44.782;10.356;2022-11-15T11:14:26;62.90;;;32.33;;
39982;SDS011;25670;44.782;10.356;2022-11-15T11:19:46;59.58;;;30.77;;
39982;SDS011;25670;44.782;10.356;2022-11-15T11:25:42;53.60;;;31.00;;
39982;SDS011;25670;44.782;10.356;2022-11-15T11:28:51;50.60;;;28.95;;
39982;SDS011;25670;44.782;10.356;2022-11-15T11:34:04;52.33;;;29.75;;
39982;SDS011;25670;44.782;10.356;2022-11-15T11:42:15;57.35;;;29.98;;
39982;SDS011;25670;44.782;10.356;2022-11-15T11:47:39;52.60;;;29.90;;
39982;SDS011;25670;44.782;10.356;2022-11-15T11:50:20;57.85;;;30.13;;
39982;SDS011;25670;44.782;10.356;2022-11-15T11:55:32;60.87;;;30.73;;
39982;SDS011;25670;44.782;10.356;2022-11-15T12:00:40;60.78;;;31.15;;
39982;SDS011;25670;44.782;10.356;2022-11-15T12:03:14;62.97;;;31.25;;
39982;SDS011;25670;44.782;10.356;2022-11-15T12:05:54;59.53;;;30.52;;
39982;SDS011;25670;44.782;10.356;2022-11-15T12:08:43;59.15;;;31.13;;
39982;SDS011;25670;44.782;10.356;2022-11-15T12:11:23;57.90;;;30.67;;
39982;SDS011;25670;44.782;10.356;2022-11-15T12:14:01;59.63;;;29.75;;
39982;SDS011;25670;44.782;10.356;2022-11-15T12:16:31;60.10;;;30.33;;
39982;SDS011;25670;44.782;10.356;2022-11-15T12:18:59;62.05;;;31.65;;
39982;SDS011;25670;44.782;10.356;2022-11-15T12:21:48;53.13;;;30.67;;
39982;SDS011;25670;44.782;10.356;2022-11-15T12:24:34;60.13;;;31.42;;
39982;SDS011;25670;44.782;10.356;2022-11-15T12:29:43;55.60;;;29.98;;
39982;SDS011;25670;44.782;10.356;2022-11-15T12:35:00;51.90;;;29.73;;
39982;SDS011;25670;44.782;10.356;2022-11-15T12:42:40;47.65;;;27.50;;
39982;SDS011;25670;44.782;10.356;2022-11-15T13:06:48;53.23;;;30.20;;
39982;SDS011;25670;44.782;10.356;2022-11-15T13:11:58;47.92;;;27.85;;
39982;SDS011;25670;44.782;10.356;2022-11-15T13:19:48;48.53;;;26.10;;
39982;SDS011;25670;44.782;10.356;2022-11-15T13:22:27;44.63;;;25.55;;
39982;SDS011;25670;44.782;10.356;2022-11-15T13:30:35;41.72;;;24.00;;
39982;SDS011;25670;44.782;10.356;2022-11-15T13:33:19;44.88;;;24.95;;
39982;SDS011;25670;44.782;10.356;2022-11-15T13:35:46;43.92;;;26.15;;
39982;SDS011;25670;44.782;10.356;2022-11-15T13:40:53;42.30;;;25.05;;
39982;SDS011;25670;44.782;10.356;2022-11-15T13:48:30;41.28;;;24.88;;
39982;SDS011;25670;44.782;10.356;2022-11-15T13:50:59;39.72;;;24.38;;
39982;SDS011;25670;44.782;10.356;2022-11-15T13:53:29;38.70;;;23.02;;
39982;SDS011;25670;44.782;10.356;2022-11-15T13:55:58;36.70;;;22.60;;
39982;SDS011;25670;44.782;10.356;2022-11-15T13:58:25;41.85;;;24.98;;
39982;SDS011;25670;44.782;10.356;2022-11-15T14:00:58;44.10;;;25.15;;
39982;SDS011;25670;44.782;10.356;2022-11-15T14:03:34;37.30;;;23.17;;
39982;SDS011;25670;44.782;10.356;2022-11-15T14:06:08;36.97;;;21.73;;
39982;SDS011;25670;44.782;10.356;2022-11-15T14:11:26;40.10;;;20.75;;
39982;SDS011;25670;44.782;10.356;2022-11-15T14:14:26;31.58;;;20.40;;
39982;SDS011;25670;44.782;10.356;2022-11-15T14:16:52;36.83;;;22.60;;
39982;SDS011;25670;44.782;10.356;2022-11-15T14:27:33;45.60;;;25.83;;
39982;SDS011;25670;44.782;10.356;2022-11-15T14:30:00;47.20;;;25.38;;
39982;SDS011;25670;44.782;10.356;2022-11-15T14:32:27;43.80;;;25.35;;
39982;SDS011;25670;44.782;10.356;2022-11-15T14:34:56;50.72;;;25.17;;
39982;SDS011;25670;44.782;10.356;2022-11-15T14:37:27;39.15;;;22.52;;
39982;SDS011;25670;44.782;10.356;2022-11-15T14:39:54;43.33;;;23.08;;
39982;SDS011;25670;44.782;10.356;2022-11-15T14:42:21;41.60;;;23.17;;
39982;SDS011;25670;44.782;10.356;2022-11-15T14:44:48;48.55;;;24.17;;
39982;SDS011;25670;44.782;10.356;2022-11-15T14:47:15;48.88;;;26.88;;
39982;SDS011;25670;44.782;10.356;2022-11-15T14:49:41;48.15;;;24.27;;
39982;SDS011;25670;44.782;10.356;2022-11-15T14:54:54;57.67;;;29.13;;
39982;SDS011;25670;44.782;10.356;2022-11-15T14:57:21;55.45;;;27.55;;
39982;SDS011;25670;44.782;10.356;2022-11-15T14:59:48;50.00;;;26.10;;
39982;SDS011;25670;44.782;10.356;2022-11-15T15:02:21;74.07;;;26.90;;
39982;SDS011;25670;44.782;10.356;2022-11-15T15:04:51;52.30;;;27.13;;
39982;SDS011;25670;44.782;10.356;2022-11-15T15:07:17;50.38;;;26.38;;
39982;SDS011;25670;44.782;10.356;2022-11-15T15:09:44;48.22;;;24.63;;
39982;SDS011;25670;44.782;10.356;2022-11-15T15:12:18;52.42;;;26.08;;
39982;SDS011;25670;44.782;10.356;2022-11-15T15:14:48;46.42;;;25.67;;
39982;SDS011;25670;44.782;10.356;2022-11-15T15:17:15;47.50;;;25.10;;
39982;SDS011;25670;44.782;10.356;2022-11-15T15:19:41;47.70;;;23.77;;
39982;SDS011;25670;44.782;10.356;2022-11-15T15:22:10;43.55;;;23.98;;
39982;SDS011;25670;44.782;10.356;2022-11-15T15:24:40;46.25;;;24.25;;
39982;SDS011;25670;44.782;10.356;2022-11-15T15:27:06;46.42;;;25.05;;
39982;SDS011;25670;44.782;10.356;2022-11-15T15:29:32;46.70;;;25.70;;
39982;SDS011;25670;44.782;10.356;2022-11-15T15:31:59;54.80;;;26.13;;
39982;SDS011;25670;44.782;10.356;2022-11-15T15:34:25;52.53;;;26.35;;
39982;SDS011;25670;44.782;10.356;2022-11-15T15:37:37;54.97;;;28.13;;
39982;SDS011;25670;44.782;10.356;2022-11-15T15:39:37;103.10;;;54.72;;
39982;SDS011;25670;44.782;10.356;2022-11-15T15:42:04;67.38;;;33.33;;
39982;SDS011;25670;44.782;10.356;2022-11-15T15:44:30;59.85;;;30.00;;
39982;SDS011;25670;44.782;10.356;2022-11-15T15:46:56;58.10;;;28.65;;
39982;SDS011;25670;44.782;10.356;2022-11-15T15:49:23;57.45;;;28.17;;
39982;SDS011;25670;44.782;10.356;2022-11-15T15:51:49;68.18;;;33.42;;
39982;SDS011;25670;44.782;10.356;2022-11-15T15:54:16;58.50;;;28.17;;
39982;SDS011;25670;44.782;10.356;2022-11-15T15:56:42;62.13;;;28.50;;
39982;SDS011;25670;44.782;10.356;2022-11-15T15:59:08;58.10;;;27.00;;
39982;SDS011;25670;44.782;10.356;2022-11-15T16:01:34;60.47;;;29.85;;
39982;SDS011;25670;44.782;10.356;2022-11-15T16:04:00;61.75;;;29.42;;
39982;SDS011;25670;44.782;10.356;2022-11-15T16:06:37;57.60;;;29.30;;
39982;SDS011;25670;44.782;10.356;2022-11-15T16:09:05;61.80;;;28.15;;
39982;SDS011;25670;44.782;10.356;2022-11-15T16:11:32;64.47;;;32.42;;
39982;SDS011;25670;44.782;10.356;2022-11-15T16:13:59;60.88;;;29.50;;
39982;SDS011;25670;44.782;10.356;2022-11-15T16:16:26;64.38;;;30.20;;
39982;SDS011;25670;44.782;10.356;2022-11-15T16:18:54;63.13;;;28.52;;
39982;SDS011;25670;44.782;10.356;2022-11-15T16:21:21;69.50;;;35.15;;
39982;SDS011;25670;44.782;10.356;2022-11-15T16:23:47;71.07;;;30.55;;
39982;SDS011;25670;44.782;10.356;2022-11-15T16:26:20;65.72;;;30.30;;
39982;SDS011;25670;44.782;10.356;2022-11-15T16:28:53;63.15;;;29.13;;
39982;SDS011;25670;44.782;10.356;2022-11-15T16:31:19;65.22;;;29.67;;
39982;SDS011;25670;44.782;10.356;2022-11-15T16:33:49;63.80;;;30.38;;
39982;SDS011;25670;44.782;10.356;2022-11-15T16:36:19;65.03;;;29.25;;
39982;SDS011;25670;44.782;10.356;2022-11-15T16:38:50;75.90;;;37.17;;
39982;SDS011;25670;44.782;10.356;2022-11-15T16:41:17;70.72;;;31.73;;
39982;SDS011;25670;44.782;10.356;2022-11-15T16:43:44;75.13;;;35.10;;
39982;SDS011;25670;44.782;10.356;2022-11-15T16:46:21;65.60;;;30.10;;
39982;SDS011;25670;44.782;10.356;2022-11-15T16:48:49;61.40;;;30.33;;
39982;SDS011;25670;44.782;10.356;2022-11-15T16:51:16;69.75;;;33.97;;
39982;SDS011;25670;44.782;10.356;2022-11-15T16:53:43;66.28;;;30.60;;
39982;SDS011;25670;44.782;10.356;2022-11-15T16:56:30;72.13;;;35.92;;
39982;SDS011;25670;44.782;10.356;2022-11-15T16:58:56;71.07;;;30.65;;
39982;SDS011;25670;44.782;10.356;2022-11-15T17:01:24;69.40;;;30.55;;
39982;SDS011;25670;44.782;10.356;2022-11-15T17:03:52;70.65;;;31.00;;
39982;SDS011;25670;44.782;10.356;2022-11-15T17:06:19;68.18;;;31.23;;
39982;SDS011;25670;44.782;10.356;2022-11-15T17:08:46;64.97;;;30.00;;
39982;SDS011;25670;44.782;10.356;2022-11-15T17:11:17;74.82;;;32.88;;
39982;SDS011;25670;44.782;10.356;2022-11-15T17:13:46;63.50;;;30.48;;
39982;SDS011;25670;44.782;10.356;2022-11-15T17:16:14;70.45;;;30.65;;
39982;SDS011;25670;44.782;10.356;2022-11-15T17:18:42;68.65;;;30.50;;
39982;SDS011;25670;44.782;10.356;2022-11-15T17:21:13;69.40;;;32.47;;
39982;SDS011;25670;44.782;10.356;2022-11-15T17:23:41;65.35;;;30.60;;
39982;SDS011;25670;44.782;10.356;2022-11-15T17:26:08;73.55;;;32.78;;
39982;SDS011;25670;44.782;10.356;2022-11-15T17:28:36;74.80;;;31.75;;
39982;SDS011;25670;44.782;10.356;2022-11-15T17:31:07;81.22;;;35.05;;
39982;SDS011;25670;44.782;10.356;2022-11-15T17:33:35;73.32;;;33.80;;
39982;SDS011;25670;44.782;10.356;2022-11-15T17:36:05;82.68;;;33.58;;
39982;SDS011;25670;44.782;10.356;2022-11-15T17:41:06;70.80;;;30.67;;
39982;SDS011;25670;44.782;10.356;2022-11-15T17:43:39;71.57;;;32.15;;
39982;SDS011;25670;44.782;10.356;2022-11-15T17:46:07;69.40;;;32.08;;
39982;SDS011;25670;44.782;10.356;2022-11-15T17:48:36;65.20;;;30.42;;
39982;SDS011;25670;44.782;10.356;2022-11-15T17:51:03;56.97;;;28.60;;
39982;SDS011;25670;44.782;10.356;2022-11-15T17:53:35;63.70;;;30.25;;
39982;SDS011;25670;44.782;10.356;2022-11-15T17:58:38;59.60;;;28.38;;
39982;SDS011;25670;44.782;10.356;2022-11-15T18:03:35;64.25;;;29.67;;
39982;SDS011;25670;44.782;10.356;2022-11-15T18:06:03;63.72;;;29.27;;
39982;SDS011;25670;44.782;10.356;2022-11-15T18:08:31;58.65;;;28.10;;
39982;SDS011;25670;44.782;10.356;2022-11-15T18:11:08;56.05;;;27.92;;
39982;SDS011;25670;44.782;10.356;2022-11-15T18:13:46;56.92;;;27.73;;